Time;durP1;ratioP1;P1;durP2;ratioP2;P2;SDS_P1;SDS_P2;PMS_P1;PMS_P2;Temp;Humidity;BMP_temperature;BMP_pressure;BME280_temperature;BME280_humidity;BME280_pressure;Samples;Min_cycle;Max_cycle;Signal;HPM_P1;HPM_P2
2021/04/10 00:01:35;;;;;;;7.97;4.50;;;;;;;9.15;62.30;99480.34;5038774;28;20482;-84
2021/04/10 00:04:04;;;;;;;10.23;4.82;;;;;;;9.12;62.61;99478.69;5038604;28;20045;-84
2021/04/10 00:06:31;;;;;;;10.05;4.70;;;;;;;9.11;62.66;99470.00;5038909;28;20098;-84
2021/04/10 00:08:58;;;;;;;8.45;4.25;;;;;;;9.07;62.85;99471.09;5038838;28;20049;-84
2021/04/10 00:11:25;;;;;;;13.18;4.35;;;;;;;9.05;62.62;99474.75;5056324;28;20075;-83
2021/04/10 00:13:51;;;;;;;8.30;3.95;;;;;;;9.01;62.46;99470.59;5038059;28;20048;-84
2021/04/10 00:16:17;;;;;;;11.40;5.03;;;;;;;8.98;62.83;99479.50;5056071;28;20048;-83
2021/04/10 00:18:43;;;;;;;11.73;4.22;;;;;;;8.95;62.73;99477.88;5056263;28;20057;-83
2021/04/10 00:21:10;;;;;;;11.25;4.22;;;;;;;8.93;62.46;99481.53;5056562;28;20044;-83
2021/04/10 00:23:42;;;;;;;11.25;4.35;;;;;;;8.90;62.67;99481.69;5055843;28;20049;-84
2021/04/10 00:26:15;;;;;;;7.60;4.15;;;;;;;8.84;62.66;99475.84;5038388;28;20063;-84
2021/04/10 00:28:41;;;;;;;7.40;3.63;;;;;;;8.85;62.91;99487.16;5038500;28;20455;-84
2021/04/10 00:31:08;;;;;;;6.93;4.00;;;;;;;8.83;62.97;99489.03;5055934;28;20103;-84
2021/04/10 00:33:36;;;;;;;9.25;4.05;;;;;;;8.81;62.65;99485.63;5055779;28;20140;-84
2021/04/10 00:36:04;;;;;;;8.55;3.90;;;;;;;8.80;62.61;99487.44;5038192;28;20512;-84
2021/04/10 00:38:31;;;;;;;9.98;3.60;;;;;;;8.78;62.63;99481.41;5038281;28;20063;-84
2021/04/10 00:40:58;;;;;;;12.85;3.55;;;;;;;8.78;62.52;99491.06;5037913;28;20485;-84
2021/04/10 00:43:26;;;;;;;12.38;3.15;;;;;;;8.77;62.67;99491.97;5054573;28;20045;-84
2021/04/10 00:45:53;;;;;;;10.00;3.38;;;;;;;8.76;62.92;99488.53;5055337;28;20060;-84
2021/04/10 00:48:20;;;;;;;6.80;3.63;;;;;;;8.76;62.89;99487.66;5037978;28;20053;-84
2021/04/10 00:50:47;;;;;;;11.43;3.72;;;;;;;8.76;62.89;99485.91;5038117;28;20103;-84
2021/04/10 00:53:16;;;;;;;7.95;3.45;;;;;;;8.76;62.85;99488.53;5038048;28;20056;-84
2021/04/10 00:55:45;;;;;;;7.35;3.67;;;;;;;8.78;62.81;99491.06;5037490;28;20106;-84
2021/04/10 00:58:12;;;;;;;8.38;4.10;;;;;;;8.78;62.82;99484.03;5037677;28;20512;-84
2021/04/10 01:00:39;;;;;;;11.35;3.90;;;;;;;8.78;62.83;99485.81;5055357;28;20049;-84
2021/04/10 01:03:05;;;;;;;12.70;4.20;;;;;;;8.80;62.69;99482.19;5055226;28;20049;-84
2021/04/10 01:05:32;;;;;;;10.07;3.88;;;;;;;8.82;62.91;99482.09;5037595;28;20057;-84
2021/04/10 01:07:59;;;;;;;10.20;4.35;;;;;;;8.81;63.05;99475.16;5037719;28;20505;-84
2021/04/10 01:10:27;;;;;;;9.85;3.08;;;;;;;8.80;62.94;99486.56;5037449;28;20052;-84
2021/04/10 01:13:15;;;;;;;9.20;3.42;;;;;;;8.76;62.54;99492.91;5055014;28;20480;-83
2021/04/10 01:15:55;;;;;;;7.97;3.10;;;;;;;8.72;62.42;99493.06;5055004;28;20056;-84
2021/04/10 01:18:57;;;;;;;7.80;3.33;;;;;;;8.71;62.77;99486.13;5037408;28;20052;-83
2021/04/10 01:21:37;;;;;;;11.07;3.60;;;;;;;8.72;62.49;99492.25;5055154;28;20053;-83
2021/04/10 01:24:13;;;;;;;9.30;3.45;;;;;;;8.74;62.95;99495.63;5054866;28;20064;-83
2021/04/10 01:26:50;;;;;;;8.82;3.05;;;;;;;8.70;62.55;99491.47;5037259;28;20078;-83
2021/04/10 01:29:17;;;;;;;5.18;2.85;;;;;;;8.72;63.07;99490.44;5054883;28;20053;-83
2021/04/10 01:31:47;;;;;;;9.38;3.15;;;;;;;8.70;63.04;99483.59;5054905;28;20107;-84
2021/04/10 01:34:30;;;;;;;9.50;3.60;;;;;;;8.66;62.73;99498.66;5037165;28;20045;-84
2021/04/10 01:37:05;;;;;;;7.53;3.35;;;;;;;8.68;62.81;99502.03;5054885;28;20057;-83
2021/04/10 01:39:33;;;;;;;9.82;3.55;;;;;;;8.68;63.09;99502.03;5054776;28;20098;-83
2021/04/10 01:42:00;;;;;;;9.20;3.83;;;;;;;8.68;63.18;99502.03;5037070;28;20045;-83
2021/04/10 01:44:27;;;;;;;6.30;3.35;;;;;;;8.68;63.25;99504.66;5054354;28;20056;-83
2021/04/10 01:46:56;;;;;;;5.97;3.38;;;;;;;8.67;63.22;99496.91;5036999;28;20098;-83
2021/04/10 01:49:25;;;;;;;9.23;3.83;;;;;;;8.66;63.33;99498.66;5054323;28;20056;-84
2021/04/10 01:51:51;;;;;;;6.80;3.80;;;;;;;8.66;63.40;99503.91;5036648;28;20048;-84
2021/04/10 01:54:18;;;;;;;9.10;4.00;;;;;;;8.66;63.34;99509.16;5036290;28;20099;-83
2021/04/10 01:56:47;;;;;;;7.88;3.95;;;;;;;8.64;63.40;99511.03;5036817;28;20444;-83
2021/04/10 01:59:15;;;;;;;10.27;3.33;;;;;;;8.64;63.31;99511.03;5036769;28;20496;-83
2021/04/10 02:01:46;;;;;;;8.20;3.75;;;;;;;8.64;63.51;99510.16;5054259;28;20048;-83
2021/04/10 02:04:13;;;;;;;9.93;3.70;;;;;;;8.65;63.55;99506.63;5036133;28;20052;-83
2021/04/10 02:06:43;;;;;;;9.65;3.47;;;;;;;8.62;63.37;99505.00;5054040;28;20486;-83
2021/04/10 02:09:11;;;;;;;11.52;3.67;;;;;;;8.62;63.26;99509.38;5054257;28;20053;-83
2021/04/10 02:11:41;;;;;;;10.45;3.88;;;;;;;8.59;63.02;99502.53;5036639;28;20048;-83
2021/04/10 02:14:11;;;;;;;8.85;3.40;;;;;;;8.56;63.30;99500.09;5036054;28;20053;-84
2021/04/10 02:16:39;;;;;;;7.53;3.10;;;;;;;8.54;63.55;99505.41;5053964;28;20057;-83
2021/04/10 02:19:05;;;;;;;8.57;3.42;;;;;;;8.52;63.41;99503.78;5053943;28;20049;-84
2021/04/10 02:21:33;;;;;;;6.93;3.67;;;;;;;8.50;63.42;99503.84;5036212;28;20049;-84
2021/04/10 02:24:00;;;;;;;15.80;3.67;;;;;;;8.48;63.46;99500.44;5036181;28;20260;-84
2021/04/10 02:26:27;;;;;;;11.55;3.70;;;;;;;8.46;63.55;99512.81;5036269;28;20490;-84
2021/04/10 02:28:58;;;;;;;8.32;3.85;;;;;;;8.43;63.20;99503.31;5036128;28;20048;-84
2021/04/10 02:31:53;;;;;;;7.13;3.17;;;;;;;8.38;63.15;99507.09;5053630;28;20489;-84
2021/04/10 02:34:30;;;;;;;8.43;3.33;;;;;;;8.37;63.00;99505.41;5030473;28;20452;-83
2021/04/10 02:37:00;;;;;;;11.80;3.33;;;;;;;8.37;63.58;99503.63;5052679;28;20136;-84
2021/04/10 02:39:28;;;;;;;8.65;3.20;;;;;;;8.37;63.67;99506.25;5034685;28;20067;-84
2021/04/10 02:41:58;;;;;;;11.40;3.28;;;;;;;8.34;63.67;99499.38;5053661;28;20048;-84
2021/04/10 02:44:30;;;;;;;9.90;3.45;;;;;;;8.34;63.38;99502.00;5035698;28;20052;-84
2021/04/10 02:47:01;;;;;;;8.88;3.50;;;;;;;8.34;63.77;99504.63;5053781;28;20048;-84
2021/04/10 02:49:30;;;;;;;12.63;3.22;;;;;;;8.33;63.71;99507.34;5036012;28;20059;-84
2021/04/10 02:52:01;;;;;;;10.25;3.28;;;;;;;8.30;63.24;99503.09;5035919;28;20053;-84
2021/04/10 02:54:38;;;;;;;12.48;3.65;;;;;;;8.28;63.29;99501.47;5053271;28;20494;-84
2021/04/10 02:57:09;;;;;;;15.85;3.97;;;;;;;8.27;63.61;99502.41;5036055;28;20118;-84
2021/04/10 02:59:41;;;;;;;6.47;3.40;;;;;;;8.26;63.59;99500.72;5035893;28;20060;-84
2021/04/10 03:02:09;;;;;;;;;;;;;;;8.25;62.83;99499.00;5036330;28;20049;-84
2021/04/10 03:04:40;;;;;;;9.02;3.35;;;;;;;8.27;63.32;99503.28;5035533;28;19924;-84
2021/04/10 03:07:07;;;;;;;13.30;3.72;;;;;;;8.24;63.76;99503.44;5039852;28;20104;-83
2021/04/10 03:09:36;;;;;;;8.70;3.30;;;;;;;8.23;63.63;99503.50;5057995;28;20052;-83
2021/04/10 03:12:04;;;;;;;12.15;3.80;;;;;;;8.21;63.97;99508.81;5057193;28;20053;-82
2021/04/10 03:14:30;;;;;;;15.27;3.60;;;;;;;8.20;64.12;99510.63;5039850;28;20052;-83
2021/04/10 03:16:58;;;;;;;12.80;4.20;;;;;;;8.19;64.09;99511.53;5057254;28;20498;-83
2021/04/10 03:19:24;;;;;;;13.70;3.83;;;;;;;8.19;63.96;99515.94;5057303;28;20061;-82
2021/04/10 03:21:51;;;;;;;9.35;4.13;;;;;;;8.18;64.13;99512.44;5039868;28;20057;-83
2021/04/10 03:24:17;;;;;;;12.70;4.40;;;;;;;8.18;64.24;99512.44;5039627;28;20111;-82
2021/04/10 03:26:43;;;;;;;14.32;4.25;;;;;;;8.17;63.77;99512.53;5039679;28;20465;-82
2021/04/10 03:29:10;;;;;;;10.48;4.72;;;;;;;8.16;64.10;99514.31;5057133;28;20053;-83
2021/04/10 03:31:37;;;;;;;9.60;3.53;;;;;;;8.16;64.31;99523.94;5056961;28;20493;-82
2021/04/10 03:34:05;;;;;;;10.90;4.13;;;;;;;8.13;63.95;99524.94;5056700;28;20098;-83
2021/04/10 03:36:32;;;;;;;9.75;4.25;;;;;;;8.13;64.32;99522.34;5056999;28;20057;-83
2021/04/10 03:38:58;;;;;;;12.43;4.32;;;;;;;8.14;64.38;99526.63;5039199;28;20049;-83
2021/04/10 03:41:25;;;;;;;9.13;4.68;;;;;;;8.13;64.44;99532.81;5039372;28;20447;-83
2021/04/10 03:43:51;;;;;;;10.95;4.57;;;;;;;8.13;64.46;99538.06;5039324;28;20094;-83
2021/04/10 03:46:17;;;;;;;10.02;3.92;;;;;;;8.14;64.33;99531.88;5039195;28;20440;-82
2021/04/10 03:48:43;;;;;;;13.40;4.18;;;;;;;8.14;64.57;99534.50;5056928;28;20080;-83
2021/04/10 03:51:10;;;;;;;11.68;4.70;;;;;;;8.15;64.81;99530.94;5039153;28;20514;-83
2021/04/10 03:53:36;;;;;;;20.55;5.32;;;;;;;8.16;64.50;99530.06;5038709;28;20048;-83
2021/04/10 03:56:02;;;;;;;12.60;4.78;;;;;;;8.18;64.32;99533.44;5056268;28;20452;-82
2021/04/10 03:58:28;;;;;;;10.55;4.75;;;;;;;8.18;64.48;99535.19;5038938;28;20060;-83
2021/04/10 04:00:55;;;;;;;11.10;4.20;;;;;;;8.17;64.41;99536.97;5056781;28;20421;-82
2021/04/10 04:03:21;;;;;;;14.82;5.10;;;;;;;8.18;64.48;99540.44;5109481;22;20052;-86
2021/04/10 04:05:47;;;;;;;14.88;5.22;;;;;;;8.18;64.71;99543.06;5096260;28;20040;-86
2021/04/10 04:08:13;;;;;;;10.70;4.30;;;;;;;8.17;64.41;99536.97;5096613;28;20059;-86
2021/04/10 04:10:39;;;;;;;11.55;4.68;;;;;;;8.16;64.73;99545.78;5096417;28;20400;-86
2021/04/10 04:13:05;;;;;;;12.98;4.70;;;;;;;8.15;64.40;99538.81;5078341;28;20058;-86
2021/04/10 04:15:31;;;;;;;14.45;5.10;;;;;;;8.13;64.57;99538.06;5096418;28;20059;-86
2021/04/10 04:17:58;;;;;;;15.93;4.72;;;;;;;8.12;64.48;99541.63;5077080;28;20052;-86
2021/04/10 04:20:25;;;;;;;10.60;4.25;;;;;;;8.11;64.50;99545.13;5096349;28;20059;-86
2021/04/10 04:22:51;;;;;;;12.05;4.63;;;;;;;8.10;64.89;99545.25;5078190;28;20048;-86
2021/04/10 04:25:17;;;;;;;9.05;4.63;;;;;;;8.10;64.96;99542.63;5077812;28;20052;-86
2021/04/10 04:27:50;;;;;;;13.55;4.57;;;;;;;8.07;64.54;99547.06;5079265;28;20063;-86
2021/04/10 04:30:19;;;;;;;11.25;4.70;;;;;;;8.04;64.58;99547.22;5095930;28;20127;-86
2021/04/10 04:32:45;;;;;;;13.80;4.78;;;;;;;8.04;64.81;99556.88;5096020;28;20080;-86
2021/04/10 04:35:12;;;;;;;13.07;5.10;;;;;;;8.02;64.89;99558.72;5095780;28;20044;-86
2021/04/10 04:37:39;;;;;;;8.30;4.50;;;;;;;8.00;65.02;99558.78;5096358;28;20059;-86
2021/04/10 04:40:07;;;;;;;12.48;5.22;;;;;;;7.99;65.18;99558.88;5077873;28;20048;-86
2021/04/10 04:42:33;;;;;;;13.45;4.57;;;;;;;7.99;65.06;99569.38;5077929;28;20056;-85
2021/04/10 04:45:00;;;;;;;13.82;4.93;;;;;;;7.98;64.87;99573.75;5095516;28;20488;-86
2021/04/10 04:47:26;;;;;;;11.95;4.90;;;;;;;7.95;65.21;99572.13;5095844;28;20052;-86
2021/04/10 04:49:52;;;;;;;10.43;5.10;;;;;;;7.95;65.09;99571.28;5077816;28;20506;-85
2021/04/10 04:52:18;;;;;;;10.63;4.43;;;;;;;7.95;65.24;99572.13;5077821;28;20055;-86
2021/04/10 04:54:44;;;;;;;16.58;5.50;;;;;;;7.94;65.11;99580.06;5095010;28;20093;-86
2021/04/10 04:57:10;;;;;;;17.30;6.05;;;;;;;7.94;65.06;99580.94;5077669;28;20056;-85
2021/04/10 04:59:36;;;;;;;17.85;5.78;;;;;;;7.92;64.93;99582.75;5095368;28;20520;-86
2021/04/10 05:02:03;;;;;;;15.25;5.45;;;;;;;7.91;64.99;99581.06;5077569;28;20094;-86
2021/04/10 05:04:29;;;;;;;12.48;5.28;;;;;;;7.90;65.30;99583.75;5095249;28;20055;-85
2021/04/10 05:06:55;;;;;;;11.25;5.18;;;;;;;7.89;65.28;99597.78;5077528;28;20055;-85
2021/04/10 05:09:21;;;;;;;11.50;5.07;;;;;;;7.88;65.21;99591.69;5095310;28;20488;-85
2021/04/10 05:11:50;;;;;;;15.30;5.20;;;;;;;7.87;65.40;99605.72;5095115;28;20109;-85
2021/04/10 05:14:16;;;;;;;13.48;4.90;;;;;;;7.87;65.15;99605.72;5094838;28;20400;-85
2021/04/10 05:16:42;;;;;;;12.77;5.35;;;;;;;7.88;65.14;99617.03;5077307;28;20051;-85
2021/04/10 05:19:08;;;;;;;14.55;5.82;;;;;;;7.87;65.29;99616.22;5095313;28;20056;-85
2021/04/10 05:21:34;;;;;;;14.43;5.50;;;;;;;7.87;65.59;99620.59;5095199;28;20052;-85
2021/04/10 05:24:01;;;;;;;12.85;5.28;;;;;;;7.87;65.79;99613.59;5076864;28;20044;-85
2021/04/10 05:26:27;;;;;;;11.85;5.22;;;;;;;7.88;65.49;99611.78;5094915;28;20058;-86
2021/04/10 05:28:53;;;;;;;10.30;4.78;;;;;;;7.87;65.68;99618.84;5094638;28;20048;-85
2021/04/10 05:31:19;;;;;;;15.13;5.57;;;;;;;7.87;65.56;99618.84;5094851;28;20054;-85
2021/04/10 05:33:45;;;;;;;12.82;5.38;;;;;;;7.87;65.84;99621.44;5076438;28;20044;-85
2021/04/10 05:36:11;;;;;;;11.82;4.72;;;;;;;7.89;65.83;99626.63;5094904;28;20052;-85
2021/04/10 05:38:38;;;;;;;13.10;4.72;;;;;;;7.90;65.71;99625.69;5094931;28;20059;-85
2021/04/10 05:41:06;;;;;;;11.88;5.80;;;;;;;7.91;65.65;99628.25;5094519;28;20489;-85
2021/04/10 05:43:32;;;;;;;12.40;5.00;;;;;;;7.92;65.66;99632.56;5094859;28;20047;-85
2021/04/10 05:46:01;;;;;;;12.75;4.70;;;;;;;7.94;65.86;99628.09;5094533;28;20051;-85
2021/04/10 05:48:27;;;;;;;15.57;4.63;;;;;;;7.94;65.68;99633.34;5094790;28;20055;-85
2021/04/10 05:50:54;;;;;;;14.93;4.78;;;;;;;7.95;65.61;99635.03;5094581;28;20047;-85
2021/04/10 05:53:22;;;;;;;11.38;4.70;;;;;;;7.94;65.90;99633.34;5094173;28;20044;-85
2021/04/10 05:55:48;;;;;;;13.40;4.80;;;;;;;7.97;65.96;99634.09;5094167;28;20048;-85
2021/04/10 05:58:14;;;;;;;11.07;5.38;;;;;;;7.96;66.00;99635.88;5094770;28;20081;-85
2021/04/10 06:00:40;;;;;;;13.90;5.00;;;;;;;7.97;65.68;99631.50;5076654;28;20047;-85
2021/04/10 06:03:06;;;;;;;14.07;4.90;;;;;;;7.97;66.16;99632.34;5094090;28;20504;-85
2021/04/10 06:05:32;;;;;;;17.52;5.05;;;;;;;7.97;65.96;99634.09;5093830;28;20070;-85
2021/04/10 06:07:58;;;;;;;11.73;5.20;;;;;;;7.97;65.88;99639.34;5094031;28;20488;-85
2021/04/10 06:10:25;;;;;;;14.55;4.68;;;;;;;7.98;66.24;99639.28;5076275;28;20055;-85
2021/04/10 06:12:51;;;;;;;13.95;5.05;;;;;;;8.00;66.39;99647.91;5094414;28;20055;-85
2021/04/10 06:15:19;;;;;;;16.77;5.45;;;;;;;8.01;66.33;99643.53;5075800;28;20044;-85
2021/04/10 06:17:46;;;;;;;12.02;5.10;;;;;;;8.04;66.46;99641.59;5094071;28;20044;-85
2021/04/10 06:20:13;;;;;;;12.85;5.35;;;;;;;8.07;66.22;99648.47;5094025;28;20051;-85
2021/04/10 06:22:40;;;;;;;16.05;4.57;;;;;;;8.11;66.21;99650.00;5094020;28;20197;-85
2021/04/10 06:25:07;;;;;;;13.70;5.30;;;;;;;8.14;66.07;99649.88;5085973;28;20567;-85
2021/04/10 06:27:37;;;;;;;15.63;4.90;;;;;;;8.17;66.35;99654.97;5100322;28;20056;-85
2021/04/10 06:30:05;;;;;;;13.02;5.05;;;;;;;8.20;66.30;99654.81;5093463;28;20117;-84
2021/04/10 06:32:31;;;;;;;12.45;5.05;;;;;;;8.21;65.95;99645.16;5093393;28;20044;-85
2021/04/10 06:34:57;;;;;;;9.43;4.20;;;;;;;8.23;66.12;99637.22;5092400;28;20052;-85
2021/04/10 06:37:23;;;;;;;13.85;4.82;;;;;;;8.24;66.08;99636.31;5093048;28;20052;-85
2021/04/10 06:39:49;;;;;;;13.48;4.90;;;;;;;8.26;65.97;99629.22;5092531;28;20125;-85
2021/04/10 06:42:15;;;;;;;13.85;4.88;;;;;;;8.27;66.11;99629.16;5093555;28;20056;-84
2021/04/10 06:44:41;;;;;;;16.35;4.75;;;;;;;8.29;66.28;99636.91;5092423;28;20043;-85
2021/04/10 06:47:08;;;;;;;17.60;5.88;;;;;;;8.31;65.95;99638.56;5093170;28;20044;-85
2021/04/10 06:49:36;;;;;;;14.00;5.03;;;;;;;8.33;65.95;99643.72;5092844;28;20048;-85
2021/04/10 06:52:06;;;;;;;11.90;5.05;;;;;;;8.34;66.10;99640.19;5074632;28;20052;-85
2021/04/10 06:54:34;;;;;;;11.77;5.10;;;;;;;8.37;65.84;99637.38;5074184;28;20048;-85
2021/04/10 06:57:10;;;;;;;17.63;5.07;;;;;;;8.37;65.98;99645.25;5092780;28;20052;-83
2021/04/10 06:59:44;;;;;;;15.15;5.07;;;;;;;8.41;66.07;99651.22;5092834;28;20052;-84
2021/04/10 07:02:11;;;;;;;17.50;5.30;;;;;;;8.48;66.34;99661.31;5092985;28;20055;-84
2021/04/10 07:04:38;;;;;;;18.02;4.95;;;;;;;8.53;66.37;99658.50;5091980;28;20048;-84
2021/04/10 07:07:05;;;;;;;12.73;4.68;;;;;;;8.57;66.32;99662.66;5089546;28;20057;-84
2021/04/10 07:09:35;;;;;;;18.30;5.80;;;;;;;8.61;66.23;99658.13;5072587;28;20485;-84
2021/04/10 07:12:07;;;;;;;17.40;5.50;;;;;;;8.65;66.00;99657.03;5072318;28;20486;-84
2021/04/10 07:14:34;;;;;;;22.05;5.60;;;;;;;8.71;66.05;99659.34;5053783;28;20055;-85
2021/04/10 07:17:01;;;;;;;14.57;5.03;;;;;;;8.75;66.71;99667.06;5054577;28;20056;-85
2021/04/10 07:19:29;;;;;;;10.80;4.90;;;;;;;8.81;66.40;99661.50;5072424;28;20481;-85
2021/04/10 07:22:06;;;;;;;17.75;5.53;;;;;;;8.83;66.15;99663.09;5072639;28;20064;-85
2021/04/10 07:24:49;;;;;;;16.08;5.68;;;;;;;8.92;66.71;99659.16;5072270;28;20051;-84
2021/04/10 07:27:16;;;;;;;19.05;5.90;;;;;;;9.03;66.65;99668.25;5072320;28;20497;-84
2021/04/10 07:29:45;;;;;;;10.60;5.28;;;;;;;9.10;66.33;99678.38;5071921;28;20044;-85
2021/04/10 07:32:35;;;;;;;13.57;6.07;;;;;;;9.16;65.68;99682.44;5072319;28;20044;-85
2021/04/10 07:35:10;;;;;;;12.98;5.82;;;;;;;9.23;65.25;99675.94;5071472;28;20111;-84
2021/04/10 07:37:48;;;;;;;12.05;4.97;;;;;;;9.29;64.94;99682.66;5072457;28;20056;-85
2021/04/10 07:40:23;;;;;;;12.35;5.53;;;;;;;9.33;64.83;99678.06;5072122;28;20098;-85
2021/04/10 07:42:50;;;;;;;12.88;5.40;;;;;;;9.37;65.21;99682.25;5071922;28;20044;-85
2021/04/10 07:45:22;;;;;;;28.05;6.28;;;;;;;9.34;64.04;99683.25;5071910;28;20052;-85
2021/04/10 07:47:50;;;;;;;15.57;6.30;;;;;;;9.37;64.81;99687.50;5054126;28;20102;-85
2021/04/10 07:50:21;;;;;;;15.25;5.70;;;;;;;9.36;64.25;99683.19;5072127;28;20053;-85
2021/04/10 07:52:48;;;;;;;15.18;5.35;;;;;;;9.37;64.93;99684.88;5075195;28;20045;-85
2021/04/10 07:55:39;;;;;;;15.52;5.82;;;;;;;9.32;64.26;99689.53;5075419;28;20052;-85
2021/04/10 07:58:17;;;;;;;18.15;6.10;;;;;;;9.33;64.14;99702.56;5075896;28;20106;-84
2021/04/10 08:00:44;;;;;;;13.63;5.50;;;;;;;9.34;64.78;99709.53;5075726;28;20370;-85
2021/04/10 08:03:26;;;;;;;13.45;5.32;;;;;;;9.28;63.90;99704.59;5075710;28;20455;-85
2021/04/10 08:05:53;;;;;;;16.05;5.40;;;;;;;9.30;64.70;99710.63;5071114;28;20044;-85
2021/04/10 08:08:22;;;;;;;15.70;5.40;;;;;;;9.29;64.82;99715.94;5095705;28;20059;-85
2021/04/10 08:10:59;;;;;;;13.77;4.93;;;;;;;9.24;64.14;99719.66;5095515;28;20051;-85
2021/04/10 08:13:26;;;;;;;13.65;5.40;;;;;;;9.27;64.51;99725.69;5095617;28;20527;-84
2021/04/10 08:16:12;;;;;;;12.13;5.75;;;;;;;9.22;63.79;99726.78;5095152;28;20488;-84
2021/04/10 08:18:49;;;;;;;15.75;5.32;;;;;;;9.23;63.90;99722.34;5095999;28;20044;-83
2021/04/10 08:21:17;;;;;;;11.55;5.18;;;;;;;9.23;64.47;99728.47;5095672;28;20067;-83
2021/04/10 08:23:45;;;;;;;10.95;5.10;;;;;;;9.22;64.36;99734.66;5095157;28;20048;-83
2021/04/10 08:26:13;;;;;;;13.38;5.55;;;;;;;9.22;64.36;99739.06;5095586;28;20044;-83
2021/04/10 08:28:40;;;;;;;25.02;5.63;;;;;;;9.21;64.66;99742.63;5095619;28;20058;-83
2021/04/10 08:31:06;;;;;;;14.15;5.05;;;;;;;9.18;64.49;99740.13;5095311;28;20280;-82
2021/04/10 08:33:33;;;;;;;15.35;4.93;;;;;;;9.17;64.78;99739.31;5094977;28;20131;-83
2021/04/10 08:36:04;;;;;;;11.95;4.85;;;;;;;9.16;64.38;99753.34;5076951;28;20047;-82
2021/04/10 08:38:32;;;;;;;11.15;4.90;;;;;;;9.18;64.66;99756.75;5095577;28;20048;-82
2021/04/10 08:41:02;;;;;;;14.48;4.88;;;;;;;9.19;64.33;99761.06;5095307;28;20059;-83
2021/04/10 08:43:35;;;;;;;11.52;4.88;;;;;;;9.20;64.52;99760.13;5077279;28;20048;-83
2021/04/10 08:46:04;;;;;;;10.48;5.15;;;;;;;9.21;64.08;99761.00;5094631;28;20420;-84
2021/04/10 08:48:31;;;;;;;11.15;5.25;;;;;;;9.22;64.23;99762.69;5094952;28;20489;-84
2021/04/10 08:51:01;;;;;;;14.45;4.85;;;;;;;9.20;63.92;99765.38;5095019;28;20492;-85
2021/04/10 08:53:32;;;;;;;9.32;4.20;;;;;;;9.20;63.98;99752.25;5095172;28;20052;-84
2021/04/10 08:55:59;;;;;;;16.35;4.72;;;;;;;9.20;64.06;99751.44;5094677;28;20056;-84
2021/04/10 08:58:31;;;;;;;15.65;4.63;;;;;;;9.18;63.92;99759.38;5094753;28;20052;-84
2021/04/10 09:01:00;;;;;;;11.52;4.45;;;;;;;9.20;64.28;99761.94;5094808;28;20054;-84
2021/04/10 09:03:44;;;;;;;11.95;4.72;;;;;;;9.17;63.46;99760.31;5093985;28;20044;-85
2021/04/10 09:06:15;;;;;;;9.13;4.35;;;;;;;9.21;64.44;99759.22;5094859;28;20051;-85
2021/04/10 09:08:41;;;;;;;14.90;5.05;;;;;;;9.23;64.58;99756.50;5094709;28;20052;-82
2021/04/10 09:11:08;;;;;;;17.25;4.85;;;;;;;9.24;64.73;99761.69;5094788;28;20110;-82
2021/04/10 09:13:52;;;;;;;9.80;3.90;;;;;;;9.22;63.65;99760.94;5094780;28;20389;-85
2021/04/10 09:16:33;;;;;;;13.10;4.20;;;;;;;9.23;63.34;99757.38;5094600;28;20047;-84
2021/04/10 09:19:19;;;;;;;13.65;4.20;;;;;;;9.30;64.17;99762.31;5094539;28;20044;-84
2021/04/10 09:21:53;;;;;;;11.85;4.40;;;;;;;9.25;63.51;99763.41;5094758;28;20048;-85
2021/04/10 09:24:23;;;;;;;16.23;4.47;;;;;;;9.29;63.99;99763.22;5075913;28;20052;-84
2021/04/10 09:26:54;;;;;;;10.50;4.35;;;;;;;9.27;63.96;99771.19;5076352;28;20105;-85
2021/04/10 09:29:22;;;;;;;8.15;3.67;;;;;;;9.29;64.54;99761.47;5094488;28;20044;-85
2021/04/10 09:32:01;;;;;;;15.30;4.45;;;;;;;9.31;63.87;99764.00;5094043;28;20052;-85
2021/04/10 09:34:54;;;;;;;9.43;3.95;;;;;;;9.31;63.41;99766.63;5093374;28;20055;-84
2021/04/10 09:37:19;;;;;;;20.67;4.70;;;;;;;9.38;64.26;99770.63;5094410;28;20044;-84
2021/04/10 09:40:03;;;;;;;15.38;4.18;;;;;;;9.37;63.35;99768.94;5094411;28;20044;-84
2021/04/10 09:45:06;;;;;;;15.10;4.20;;;;;;;9.43;64.25;99767.78;5093588;28;20052;-84
2021/04/10 09:48:03;;;;;;;14.05;3.80;;;;;;;9.40;63.21;99768.78;5093975;28;20055;-84
2021/04/10 09:50:41;;;;;;;10.52;3.83;;;;;;;9.43;63.36;99766.00;5093751;28;20048;-85
2021/04/10 09:53:17;;;;;;;11.15;3.55;;;;;;;9.46;62.95;99770.25;5093752;28;20056;-82
2021/04/10 09:55:49;;;;;;;10.20;4.00;;;;;;;9.47;63.31;99762.28;5075298;28;20043;-83
2021/04/10 09:58:17;;;;;;;11.75;3.90;;;;;;;9.49;63.43;99768.28;5094095;28;20051;-82
2021/04/10 10:00:48;;;;;;;10.90;4.25;;;;;;;9.48;63.57;99765.75;5093646;28;20101;-83
2021/04/10 10:03:18;;;;;;;12.55;3.85;;;;;;;9.45;63.38;99769.38;5093511;28;20044;-84
2021/04/10 10:06:16;;;;;;;11.23;3.85;;;;;;;9.41;62.65;99756.50;5093255;28;20603;-85
2021/04/10 10:08:44;;;;;;;12.00;3.50;;;;;;;9.43;63.44;99754.63;5093959;28;20059;-84
2021/04/10 10:11:10;;;;;;;13.85;4.18;;;;;;;9.41;63.58;99764.38;5093885;28;20044;-84
2021/04/10 10:13:37;;;;;;;14.80;3.92;;;;;;;9.38;63.61;99765.38;5093360;28;20412;-85
2021/04/10 10:16:04;;;;;;;11.35;3.42;;;;;;;9.36;63.60;99765.47;5092901;28;20048;-85
2021/04/10 10:18:33;;;;;;;9.02;3.90;;;;;;;9.34;63.28;99759.44;5075750;28;20105;-84
2021/04/10 10:21:10;;;;;;;9.93;3.58;;;;;;;9.32;63.14;99755.19;5093441;28;20048;-84
2021/04/10 10:23:52;;;;;;;10.85;3.75;;;;;;;9.29;63.61;99769.34;5088030;22;20041;-83
2021/04/10 10:26:27;;;;;;;11.75;3.35;;;;;;;9.27;63.49;99775.59;5044579;28;20056;-84
2021/04/10 10:29:07;;;;;;;10.20;3.35;;;;;;;9.25;63.44;99768.66;5052452;28;20547;-83
2021/04/10 10:32:02;;;;;;;14.85;4.45;;;;;;;9.23;63.10;99774.88;5035757;28;20049;-83
2021/04/10 10:34:28;;;;;;;9.70;3.65;;;;;;;9.27;64.12;99778.22;4987227;28;20100;-84
2021/04/10 10:36:55;;;;;;;14.30;3.83;;;;;;;9.24;64.08;99771.34;5014117;28;20414;-84
2021/04/10 10:39:33;;;;;;;11.93;4.30;;;;;;;9.21;63.33;99772.38;5014050;28;20049;-84
2021/04/10 10:42:03;;;;;;;12.93;4.43;;;;;;;9.24;63.87;99777.44;4996239;28;20049;-83
2021/04/10 10:44:30;;;;;;;10.70;4.03;;;;;;;9.25;64.35;99784.41;4995540;28;20498;-85
2021/04/10 10:47:01;;;;;;;13.30;4.07;;;;;;;9.23;63.87;99780.13;4996071;28;20476;-84
2021/04/10 10:49:28;;;;;;;16.48;4.03;;;;;;;9.24;64.00;99777.44;4996258;28;20069;-85
2021/04/10 10:51:54;;;;;;;12.93;4.53;;;;;;;9.23;64.31;99774.88;5013421;28;20050;-84
2021/04/10 10:54:34;;;;;;;16.45;4.00;;;;;;;9.18;63.81;99769.88;4996168;28;20050;-84
2021/04/10 10:57:14;;;;;;;17.85;4.00;;;;;;;9.18;64.08;99767.25;4996391;28;20046;-85
2021/04/10 11:00:10;;;;;;;16.13;4.35;;;;;;;9.17;64.18;99762.94;5013189;28;20514;-84
2021/04/10 11:02:36;;;;;;;14.60;4.05;;;;;;;9.19;64.21;99755.81;4996208;28;20050;-85
2021/04/10 11:05:04;;;;;;;11.50;4.15;;;;;;;9.19;64.39;99762.88;4995949;28;20518;-85
2021/04/10 11:07:30;;;;;;;13.73;4.20;;;;;;;9.16;64.92;99753.34;4996093;28;20057;-85
2021/04/10 11:09:58;;;;;;;12.55;4.45;;;;;;;9.17;64.93;99756.84;5013474;28;20069;-83
2021/04/10 11:12:25;;;;;;;18.52;4.65;;;;;;;9.18;64.94;99755.91;5013692;28;20061;-85
2021/04/10 11:14:58;;;;;;;17.40;5.00;;;;;;;9.19;64.46;99760.25;5012726;28;20046;-85
2021/04/10 11:17:30;;;;;;;12.60;4.68;;;;;;;9.19;64.85;99757.63;4996281;28;20053;-85
2021/04/10 11:19:59;;;;;;;10.18;4.22;;;;;;;9.22;64.96;99763.56;4995728;28;20506;-84
2021/04/10 11:22:26;;;;;;;7.90;4.35;;;;;;;9.22;65.44;99758.31;5012780;28;20064;-84
2021/04/10 11:24:52;;;;;;;14.20;4.88;;;;;;;9.25;65.45;99747.66;4995331;28;20057;-84
2021/04/10 11:27:21;;;;;;;14.85;4.90;;;;;;;9.28;65.30;99751.03;4998599;28;20200;-85
2021/04/10 11:29:54;;;;;;;17.42;4.97;;;;;;;9.29;64.84;99747.47;4999976;28;20061;-85
2021/04/10 11:32:33;;;;;;;16.37;5.53;;;;;;;9.30;65.13;99742.13;4999750;28;20129;-85
2021/04/10 11:35:02;;;;;;;11.77;4.53;;;;;;;9.32;64.88;99732.41;4998909;28;20308;-85
2021/04/10 11:37:28;;;;;;;15.13;4.93;;;;;;;9.33;65.05;99733.25;4999835;28;20072;-85
2021/04/10 11:39:55;;;;;;;13.40;4.75;;;;;;;9.33;65.11;99733.25;4999819;28;20049;-84
2021/04/10 11:42:31;;;;;;;12.88;4.93;;;;;;;9.31;64.88;99733.31;4999552;28;20056;-85
2021/04/10 11:44:59;;;;;;;11.40;4.97;;;;;;;9.32;65.09;99727.16;5016399;28;20054;-85
2021/04/10 11:47:32;;;;;;;12.98;4.97;;;;;;;9.31;65.13;99735.13;4999141;28;20066;-84
2021/04/10 11:50:10;;;;;;;17.42;5.53;;;;;;;9.29;65.32;99723.81;5016578;28;20060;-84
2021/04/10 11:52:37;;;;;;;11.57;5.05;;;;;;;9.33;65.82;99725.38;4999476;28;20050;-84